createdAt,value
2022-12-12T00:00:46.212Z,94030.81
2022-12-12T00:03:13.949Z,94029.50
2022-12-12T00:05:41.908Z,94034.38
2022-12-12T00:08:09.718Z,94026.94
2022-12-12T00:10:37.743Z,94033.00
2022-12-12T00:13:05.492Z,94032.53
2022-12-12T00:15:34.582Z,94031.41
2022-12-12T00:18:02.306Z,94032.50
2022-12-12T00:20:29.954Z,94036.22
2022-12-12T00:22:57.623Z,94035.91
2022-12-12T00:25:25.284Z,94040.47
2022-12-12T00:27:52.939Z,94048.63
2022-12-12T00:30:20.599Z,94041.34
2022-12-12T00:32:49.741Z,94048.50
2022-12-12T00:35:17.501Z,94047.69
2022-12-12T00:37:45.169Z,94039.88
2022-12-12T00:40:13.746Z,94046.38
2022-12-12T00:42:41.413Z,94041.41
2022-12-12T00:45:10.008Z,94043.75
2022-12-12T00:47:37.956Z,94043.13
2022-12-12T00:50:08.439Z,94046.06
2022-12-12T00:52:36.086Z,94044.34
2022-12-12T00:55:03.844Z,94045.03
2022-12-12T00:57:31.525Z,94046.13
2022-12-12T00:59:59.412Z,94053.59
2022-12-12T01:02:28.389Z,94055.72
2022-12-12T01:04:56.335Z,94056.19
2022-12-12T01:07:25.363Z,94061.78
2022-12-12T01:09:53.026Z,94060.75
2022-12-12T01:12:20.621Z,94058.41
2022-12-12T01:14:48.489Z,94062.19
2022-12-12T01:17:16.207Z,94060.16
2022-12-12T01:19:43.847Z,94065.94
2022-12-12T01:22:11.554Z,94062.94
2022-12-12T01:24:40.768Z,94069.63
2022-12-12T01:27:08.415Z,94067.63
2022-12-12T01:29:36.354Z,94062.94
2022-12-12T01:32:04.065Z,94060.94
2022-12-12T01:34:31.752Z,94066.91
2022-12-12T01:36:59.516Z,94068.38
2022-12-12T01:39:27.208Z,94067.19
2022-12-12T01:41:56.293Z,94070.31
2022-12-12T01:44:43.093Z,94066.47
2022-12-12T01:47:11.129Z,94069.56
2022-12-12T01:49:38.790Z,94071.38
2022-12-12T01:52:09.572Z,94068.53
2022-12-12T01:54:39.735Z,94076.53
2022-12-12T01:57:13.292Z,94067.38
2022-12-12T01:59:41.235Z,94072.88
2022-12-12T02:02:09.979Z,94072.69
2022-12-12T02:04:37.852Z,94071.66
2022-12-12T02:07:05.628Z,94061.94
2022-12-12T02:09:33.900Z,94061.94
2022-12-12T02:12:01.569Z,94065.03
2022-12-12T02:14:31.844Z,94074.00
2022-12-12T02:17:27.519Z,94069.75
2022-12-12T02:20:40.301Z,94079.31
2022-12-12T02:23:31.795Z,94074.00
2022-12-12T02:26:16.756Z,94069.38
2022-12-12T02:29:16.603Z,94075.72
2022-12-12T02:31:49.714Z,94074.84
2022-12-12T02:34:20.321Z,94077.31
2022-12-12T02:36:52.700Z,94083.53
2022-12-12T02:39:24.456Z,94079.88
2022-12-12T02:41:55.058Z,94078.72
2022-12-12T02:44:27.398Z,94086.84
2022-12-12T02:47:03.426Z,94090.22
2022-12-12T02:49:34.577Z,94082.97
2022-12-12T02:52:02.626Z,94091.25
2022-12-12T02:54:30.406Z,94086.63
2022-12-12T02:57:00.096Z,94089.59
2022-12-12T02:59:30.551Z,94087.59
2022-12-12T03:02:37.122Z,94090.25
2022-12-12T03:05:36.256Z,94088.63
2022-12-12T03:08:13.191Z,94095.41
2022-12-12T03:10:50.317Z,94089.94
2022-12-12T03:13:24.394Z,94093.94
2022-12-12T03:15:58.208Z,94089.13
2022-12-12T03:18:29.370Z,94094.09
2022-12-12T03:21:03.916Z,94101.41
2022-12-12T03:23:36.243Z,94094.44
2022-12-12T03:26:07.947Z,94097.25
2022-12-12T03:28:39.098Z,94105.53
2022-12-12T03:31:09.235Z,94094.47
2022-12-12T03:33:41.652Z,94103.25
2022-12-12T03:36:14.116Z,94105.72
2022-12-12T03:38:44.571Z,94108.56
2022-12-12T03:41:15.626Z,94108.72
2022-12-12T03:43:46.565Z,94108.91
2022-12-12T03:46:18.855Z,94112.53
2022-12-12T03:48:48.910Z,94105.91
2022-12-12T03:51:20.163Z,94109.22
2022-12-12T03:53:50.042Z,94109.03
2022-12-12T03:56:21.346Z,94114.69
2022-12-12T03:58:52.889Z,94103.09
2022-12-12T04:01:22.289Z,94104.41
2022-12-12T04:03:53.386Z,94104.41
2022-12-12T04:06:30.393Z,94096.28
2022-12-12T04:09:17.516Z,94105.56
2022-12-12T04:12:09.448Z,94106.25
2022-12-12T04:14:52.551Z,94102.75
2022-12-12T04:17:23.540Z,94108.56
2022-12-12T04:20:13.655Z,94109.59
2022-12-12T04:23:05.180Z,94110.41
2022-12-12T04:25:58.562Z,94106.94
2022-12-12T04:28:26.823Z,94113.44
2022-12-12T04:30:54.822Z,94108.28
2022-12-12T04:33:24.836Z,94110.78
2022-12-12T04:35:53.489Z,94111.09
2022-12-12T04:38:25.115Z,94110.09
2022-12-12T04:40:54.748Z,94122.34
2022-12-12T04:43:24.271Z,94128.47
2022-12-12T04:45:55.142Z,94130.16
2022-12-12T04:48:27.324Z,94129.00
2022-12-12T04:50:55.383Z,94134.94
2022-12-12T04:53:28.296Z,94139.44
2022-12-12T04:55:57.700Z,94137.44
2022-12-12T04:58:25.859Z,94144.88
2022-12-12T05:00:58.695Z,94133.78
2022-12-12T05:03:31.547Z,94134.13
2022-12-12T05:06:01.056Z,94133.78
2022-12-12T05:08:31.211Z,94141.06
2022-12-12T05:11:02.360Z,94144.22
2022-12-12T05:13:32.552Z,94147.38
2022-12-12T05:16:01.679Z,94149.84
2022-12-12T05:18:29.404Z,94152.00
2022-12-12T05:20:57.270Z,94147.53
2022-12-12T05:23:27.889Z,94146.38
2022-12-12T05:25:59.196Z,94151.34
2022-12-12T05:28:26.804Z,94156.47
2022-12-12T05:30:54.510Z,94156.31
2022-12-12T05:33:22.347Z,94158.47
2022-12-12T05:35:50.298Z,94160.59
2022-12-12T05:38:18.294Z,94164.41
2022-12-12T05:40:46.189Z,94166.22
2022-12-12T05:43:15.738Z,94165.56
2022-12-12T05:45:43.540Z,94162.56
2022-12-12T05:48:11.356Z,94172.34
2022-12-12T05:50:39.045Z,94173.19
2022-12-12T05:53:07.130Z,94177.81
2022-12-12T05:55:35.068Z,94171.34
2022-12-12T05:58:03.218Z,94175.16
2022-12-12T06:00:32.603Z,94169.38
2022-12-12T06:03:00.529Z,94175.19
2022-12-12T06:05:28.733Z,94158.97
2022-12-12T06:07:56.685Z,94162.94
2022-12-12T06:10:24.764Z,94164.59
2022-12-12T06:12:52.546Z,94160.44
2022-12-12T06:15:20.649Z,94164.59
2022-12-12T06:17:51.366Z,94167.06
2022-12-12T06:20:19.596Z,94169.88
2022-12-12T06:22:53.396Z,94162.91
2022-12-12T06:25:21.632Z,94170.19
2022-12-12T06:27:49.620Z,94164.59
2022-12-12T06:30:17.596Z,94165.75
2022-12-12T06:32:45.488Z,94177.00
2022-12-12T06:35:14.999Z,94181.81
2022-12-12T06:37:43.112Z,94182.78
2022-12-12T06:40:12.526Z,94189.59
2022-12-12T06:42:46.273Z,94196.34
2022-12-12T06:45:16.159Z,94204.94
2022-12-12T06:47:44.340Z,94205.97
2022-12-12T06:50:12.514Z,94208.28
2022-12-12T06:52:41.843Z,94208.28
2022-12-12T06:55:10.548Z,94206.94
2022-12-12T06:57:38.580Z,94204.97
2022-12-12T07:00:07.487Z,94217.84
2022-12-12T07:02:35.882Z,94211.56
2022-12-12T07:05:03.728Z,94214.53
2022-12-12T07:07:32.426Z,94216.03
2022-12-12T07:10:01.767Z,94222.97
2022-12-12T07:12:29.653Z,94222.50
2022-12-12T07:14:57.491Z,94218.88
2022-12-12T07:17:25.203Z,94223.81
2022-12-12T07:19:52.995Z,94233.38
2022-12-12T07:22:20.748Z,94224.41
2022-12-12T07:24:48.535Z,94231.38
2022-12-12T07:27:21.675Z,94227.88
2022-12-12T07:29:49.698Z,94235.69
2022-12-12T07:32:17.403Z,94230.53
2022-12-12T07:34:45.260Z,94235.34
2022-12-12T07:37:13.095Z,94240.03
2022-12-12T07:39:41.148Z,94242.03
2022-12-12T07:42:09.097Z,94249.47
2022-12-12T07:44:38.392Z,94236.72
2022-12-12T07:47:06.611Z,94236.72
2022-12-12T07:49:34.464Z,94239.22
2022-12-12T07:52:03.003Z,94238.06
2022-12-12T07:54:30.924Z,94248.34
2022-12-12T07:57:00.232Z,94245.06
2022-12-12T07:59:27.931Z,94252.00
2022-12-12T08:01:57.275Z,94252.22
2022-12-12T08:04:25.110Z,94256.88
2022-12-12T08:07:00.665Z,94257.34
2022-12-12T08:09:30.666Z,94261.69
2022-12-12T08:11:58.853Z,94267.78
2022-12-12T08:14:27.360Z,94265.81
2022-12-12T08:16:55.313Z,94263.16
2022-12-12T08:19:24.581Z,94272.59
2022-12-12T08:21:52.459Z,94265.31
2022-12-12T08:24:20.274Z,94261.34
2022-12-12T08:26:48.137Z,94263.66
2022-12-12T08:29:16.061Z,94261.34
2022-12-12T08:31:43.942Z,94254.03
2022-12-12T08:34:11.934Z,94262.66
2022-12-12T08:36:41.239Z,94257.84
2022-12-12T08:39:10.721Z,94263.13
2022-12-12T08:41:40.395Z,94267.97
2022-12-12T08:44:08.313Z,94266.13
2022-12-12T08:46:36.545Z,94268.91
2022-12-12T08:49:04.508Z,94269.41
2022-12-12T08:51:32.408Z,94277.88
2022-12-12T08:54:02.426Z,94274.50
2022-12-12T11:33:21.406Z,94249.34
2022-12-12T11:36:10.792Z,94243.34
2022-12-12T11:39:14.545Z,94239.69
2022-12-12T11:42:05.110Z,94238.50
2022-12-12T11:44:35.532Z,94239.63
2022-12-12T11:47:26.035Z,94236.94
2022-12-12T11:49:59.457Z,94237.63
2022-12-12T11:52:37.311Z,94228.47
2022-12-12T11:55:08.038Z,94230.19
2022-12-12T11:58:04.869Z,94231.63
2022-12-12T12:01:01.770Z,94236.34
2022-12-12T12:04:16.439Z,94231.44
2022-12-12T12:07:07.363Z,94234.19
2022-12-12T12:10:29.936Z,94230.25
2022-12-12T12:13:11.554Z,94224.06
2022-12-12T12:16:02.473Z,94223.38
2022-12-12T12:18:42.757Z,94230.22
2022-12-12T12:21:31.224Z,94228.47
2022-12-12T12:24:28.263Z,94231.47
2022-12-12T12:27:06.368Z,94239.63
2022-12-12T12:29:46.927Z,94237.22
2022-12-12T12:32:23.304Z,94230.91
2022-12-12T12:35:00.349Z,94228.66
2022-12-12T12:37:39.636Z,94230.63
2022-12-12T12:40:18.617Z,94236.69
2022-12-12T12:43:08.627Z,94236.03
2022-12-12T12:45:45.703Z,94239.00
2022-12-12T12:48:20.042Z,94231.28
2022-12-12T12:50:50.516Z,94236.56
2022-12-12T12:53:26.855Z,94235.13
2022-12-12T12:55:57.273Z,94233.25
2022-12-12T12:58:29.566Z,94227.25
2022-12-12T13:01:01.792Z,94230.47
2022-12-12T13:03:36.779Z,94233.88
2022-12-12T13:06:10.112Z,94234.94
2022-12-12T13:08:48.840Z,94231.34
2022-12-12T13:11:21.422Z,94228.97
2022-12-12T13:13:52.063Z,94230.16
2022-12-12T13:16:21.716Z,94227.91
2022-12-12T13:18:55.080Z,94223.28
2022-12-12T13:21:26.549Z,94222.81
2022-12-12T13:23:58.028Z,94212.13
2022-12-12T13:26:30.671Z,94223.53
2022-12-12T13:29:03.314Z,94221.03
2022-12-12T13:31:46.069Z,94236.41
2022-12-12T13:34:15.354Z,94223.94
2022-12-12T13:36:45.311Z,94229.59
2022-12-12T13:39:26.729Z,94231.94
2022-12-12T13:41:55.858Z,94234.66
2022-12-12T13:44:40.626Z,94232.03
2022-12-12T13:47:47.684Z,94227.97
2022-12-12T13:50:22.578Z,94229.38
2022-12-12T13:53:20.536Z,94241.53
2022-12-12T13:55:48.638Z,94238.00
2022-12-12T13:58:21.917Z,94240.72
2022-12-12T14:01:31.661Z,94235.72
2022-12-12T14:03:59.966Z,94231.19
2022-12-12T14:06:29.734Z,94225.84
2022-12-12T14:08:58.221Z,94224.16
2022-12-12T14:11:33.544Z,94222.00
2022-12-12T14:14:10.346Z,94237.41
2022-12-12T14:16:39.670Z,94240.84
2022-12-12T14:19:08.871Z,94240.59
2022-12-12T14:21:43.077Z,94242.66
2022-12-12T14:24:59.521Z,94245.94
2022-12-12T14:28:05.686Z,94244.13
2022-12-12T14:30:41.284Z,94244.44
2022-12-12T14:33:29.197Z,94244.81
2022-12-12T14:36:01.734Z,94240.75
2022-12-12T14:38:35.540Z,94239.16
2022-12-12T14:41:05.891Z,94238.28
2022-12-12T14:43:36.736Z,94236.59
2022-12-12T14:46:05.477Z,94223.00
2022-12-12T14:48:35.319Z,94226.50
2022-12-12T14:51:09.214Z,94223.94
2022-12-12T14:53:48.366Z,94223.25
2022-12-12T14:56:18.466Z,94219.56
2022-12-12T14:59:06.901Z,94221.72
2022-12-12T15:01:36.277Z,94229.91
2022-12-12T15:04:07.724Z,94230.91
2022-12-12T15:06:37.851Z,94228.19
2022-12-12T15:09:12.573Z,94232.88
2022-12-12T15:11:40.842Z,94227.03
2022-12-12T15:14:19.287Z,94227.50
2022-12-12T15:16:50.749Z,94225.00
2022-12-12T15:19:25.146Z,94229.06
2022-12-12T15:21:55.400Z,94213.19
2022-12-12T15:24:57.674Z,94221.72
2022-12-12T15:27:33.525Z,94222.28
2022-12-12T15:30:04.467Z,94219.97
2022-12-12T16:48:06.538Z,94245.81
2022-12-12T17:04:37.583Z,94253.75
2022-12-12T17:46:15.553Z,94245.59
2022-12-12T17:48:47.208Z,94251.56
2022-12-12T17:51:17.643Z,94252.91
2022-12-12T17:53:45.428Z,94262.50
2022-12-12T17:56:15.219Z,94256.53
2022-12-12T17:58:44.369Z,94248.56
2022-12-12T18:01:14.075Z,94255.38
2022-12-12T18:03:42.121Z,94258.38
2022-12-12T18:06:11.663Z,94261.50
2022-12-12T18:08:39.631Z,94257.03
2022-12-12T18:11:08.813Z,94264.66
2022-12-12T18:13:38.902Z,94265.81
2022-12-12T18:16:07.677Z,94264.13
2022-12-12T18:18:35.629Z,94263.97
2022-12-12T18:21:05.654Z,94258.34
2022-12-12T18:23:35.263Z,94264.63
2022-12-12T18:26:04.801Z,94267.13
2022-12-12T18:28:32.574Z,94268.56
2022-12-12T18:31:00.520Z,94260.97
2022-12-12T18:33:28.480Z,94258.66
2022-12-12T18:36:02.021Z,94264.97
2022-12-12T18:38:29.769Z,94264.66
2022-12-12T18:40:59.145Z,94255.66
2022-12-12T18:43:27.630Z,94263.28
2022-12-12T18:45:55.861Z,94254.81
2022-12-12T18:48:23.769Z,94260.44
2022-12-12T18:50:51.553Z,94257.94
2022-12-12T18:53:19.265Z,94258.97
2022-12-12T18:55:47.107Z,94258.66
2022-12-12T18:58:16.077Z,94259.66
2022-12-12T19:00:43.725Z,94253.38
2022-12-12T19:03:11.338Z,94254.81
2022-12-12T19:05:41.347Z,94257.66
2022-12-12T19:08:09.177Z,94261.31
2022-12-12T19:10:37.396Z,94262.97
2022-12-12T19:13:05.865Z,94260.97
2022-12-12T19:15:35.426Z,94258.16
2022-12-12T19:18:03.168Z,94258.34
2022-12-12T19:20:31.084Z,94262.97
2022-12-12T19:22:58.828Z,94259.16
2022-12-12T19:25:26.495Z,94256.97
2022-12-12T19:27:54.187Z,94259.44
2022-12-12T19:30:22.121Z,94255.94
2022-12-12T19:32:51.213Z,94255.94
2022-12-12T19:35:18.958Z,94255.28
2022-12-12T19:37:46.698Z,94249.34
2022-12-12T19:40:14.784Z,94252.00
2022-12-12T19:42:42.681Z,94247.00
2022-12-12T19:45:11.230Z,94247.34
2022-12-12T19:47:38.972Z,94242.75
2022-12-12T19:50:08.806Z,94249.69
2022-12-12T19:52:36.469Z,94245.38
2022-12-12T19:55:04.359Z,94244.19
2022-12-12T19:57:32.044Z,94239.75
2022-12-12T19:59:59.758Z,94235.13
2022-12-12T20:02:27.484Z,94231.63
2022-12-12T20:04:55.186Z,94229.84
2022-12-12T20:07:24.238Z,94230.84
2022-12-12T20:09:51.952Z,94229.00
2022-12-12T20:12:19.596Z,94235.81
2022-12-12T20:14:47.384Z,94235.81
2022-12-12T20:17:15.018Z,94248.25
2022-12-12T20:19:43.146Z,94237.97
2022-12-12T20:22:10.802Z,94238.13
2022-12-12T20:24:40.720Z,94228.81
2022-12-12T20:27:08.911Z,94234.13
2022-12-12T20:29:37.015Z,94227.97
2022-12-12T20:32:05.036Z,94233.59
2022-12-12T20:34:32.764Z,94244.19
2022-12-12T20:37:00.445Z,94236.59
2022-12-12T20:39:28.244Z,94237.94
2022-12-12T20:41:57.711Z,94239.22
2022-12-12T20:44:28.996Z,94234.78
2022-12-12T20:46:56.785Z,94234.09
2022-12-12T20:49:28.595Z,94228.28
2022-12-12T20:51:57.676Z,94231.44
2022-12-12T20:54:26.431Z,94227.00
2022-12-12T20:56:55.018Z,94224.31
2022-12-12T20:59:24.577Z,94231.63
2022-12-12T21:01:52.955Z,94225.97
2022-12-12T21:04:21.280Z,94225.44
2022-12-12T21:06:49.788Z,94219.53
2022-12-12T21:09:24.369Z,94218.00
2022-12-12T21:11:53.616Z,94218.81
2022-12-12T21:14:21.286Z,94221.13
2022-12-12T21:16:50.320Z,94208.22
2022-12-12T21:19:18.853Z,94211.81
2022-12-12T21:21:47.024Z,94210.19
2022-12-12T21:24:16.184Z,94213.31
2022-12-12T21:26:44.337Z,94203.25
2022-12-12T21:29:12.061Z,94212.84
2022-12-12T21:31:48.216Z,94222.59
2022-12-12T21:34:20.210Z,94218.66
2022-12-12T21:36:48.503Z,94215.50
2022-12-12T21:39:16.156Z,94212.31
2022-12-12T21:41:44.003Z,94212.09
2022-12-12T21:44:12.171Z,94220.19
2022-12-12T21:46:41.858Z,94206.28
2022-12-12T21:49:27.518Z,94208.56
2022-12-12T21:51:58.432Z,94208.41
2022-12-12T21:54:26.505Z,94194.84
2022-12-12T21:56:54.252Z,94194.84
2022-12-12T21:59:21.948Z,94198.50
2022-12-12T22:01:49.635Z,94196.69
2022-12-12T22:04:17.534Z,94200.16
2022-12-12T22:06:46.135Z,94197.78
2022-12-12T22:09:15.273Z,94204.84
2022-12-12T22:11:51.891Z,94200.88
2022-12-12T22:14:21.330Z,94190.31
2022-12-12T22:16:49.497Z,94186.66
2022-12-12T22:19:17.826Z,94188.63
2022-12-12T22:21:46.926Z,94190.31
2022-12-12T22:24:16.118Z,94187.69
2022-12-12T22:26:45.499Z,94188.50
2022-12-12T22:29:14.736Z,94191.31
2022-12-12T22:31:43.014Z,94195.47
2022-12-12T22:34:13.190Z,94183.25
2022-12-12T22:36:41.294Z,94190.22
2022-12-12T22:39:13.470Z,94189.19
2022-12-12T22:41:42.611Z,94189.19
2022-12-12T22:44:15.380Z,94188.56
2022-12-12T22:46:44.410Z,94188.56
2022-12-12T22:49:13.451Z,94191.16
2022-12-12T22:51:41.407Z,94188.19
2022-12-12T22:54:09.120Z,94191.34
2022-12-12T22:56:38.001Z,94178.59
2022-12-12T22:59:07.903Z,94181.09
2022-12-12T23:01:35.713Z,94182.59
2022-12-12T23:04:03.666Z,94181.34
2022-12-12T23:06:33.618Z,94173.44
2022-12-12T23:09:02.980Z,94170.94
2022-12-12T23:11:31.660Z,94164.63
2022-12-12T23:14:01.191Z,94167.75
2022-12-12T23:16:30.894Z,94160.31
2022-12-12T23:18:59.938Z,94159.66
2022-12-12T23:21:27.653Z,94159.44
2022-12-12T23:23:55.981Z,94144.56
2022-12-12T23:26:24.968Z,94149.78
2022-12-12T23:28:52.697Z,94149.28
2022-12-12T23:31:22.938Z,94150.19
2022-12-12T23:33:55.212Z,94148.59
2022-12-12T23:36:23.383Z,94147.81
2022-12-12T23:38:55.634Z,94142.38
2022-12-12T23:41:23.887Z,94144.03
2022-12-12T23:43:51.877Z,94140.69
2022-12-12T23:46:29.303Z,94142.06
2022-12-12T23:49:00.273Z,94140.91
2022-12-12T23:51:30.485Z,94136.41
2022-12-12T23:53:58.963Z,94140.34
2022-12-12T23:56:27.806Z,94134.69
2022-12-12T23:58:56.100Z,94132.72
